Time;durP1;ratioP1;P1;durP2;ratioP2;P2;SDS_P1;SDS_P2;PMS_P1;PMS_P2;Temp;Humidity;BMP_temperature;BMP_pressure;BME280_temperature;BME280_humidity;BME280_pressure;Samples;Min_cycle;Max_cycle;Signal;HPM_P1;HPM_P2
2021/08/19 00:00:41;;;;;;;11.68;9.23;;;;;;;;;;5005013;28;20194;-70
2021/08/19 00:03:06;;;;;;;15.43;8.65;;;;;;;;;;4996819;28;20609;-69
2021/08/19 00:05:32;;;;;;;15.50;8.40;;;;;;;;;;5005235;28;20262;-70
2021/08/19 00:07:57;;;;;;;13.23;8.73;;;;;;;;;;4991745;28;20249;-70
2021/08/19 00:10:22;;;;;;;10.25;7.63;;;;;;;;;;5003068;28;20219;-70
2021/08/19 00:12:48;;;;;;;14.27;8.43;;;;;;;;;;5006287;28;20277;-70
2021/08/19 00:15:13;;;;;;;14.10;8.98;;;;;;;;;;4996438;28;20380;-71
2021/08/19 00:17:39;;;;;;;12.73;8.55;;;;;;;;;;5002566;28;20520;-70
2021/08/19 00:20:05;;;;;;;11.15;9.13;;;;;;;;;;4997247;28;20198;-70
2021/08/19 00:22:31;;;;;;;13.07;9.00;;;;;;;;;;5001737;28;20186;-70
2021/08/19 00:25:00;;;;;;;13.00;9.02;;;;;;;;;;4994727;28;20183;-71
2021/08/19 00:27:26;;;;;;;15.18;9.05;;;;;;;;;;5003696;28;20191;-70
2021/08/19 00:29:51;;;;;;;11.93;9.23;;;;;;;;;;4997792;28;20697;-70
2021/08/19 00:32:16;;;;;;;13.63;9.10;;;;;;;;;;5000018;28;20179;-71
2021/08/19 00:34:42;;;;;;;14.32;9.38;;;;;;;;;;4995140;28;20199;-70
2021/08/19 00:37:08;;;;;;;12.48;8.63;;;;;;;;;;5004559;28;20726;-70
2021/08/19 00:39:34;;;;;;;13.90;9.10;;;;;;;;;;4999777;28;20196;-70
2021/08/19 00:41:59;;;;;;;13.73;9.50;;;;;;;;;;5001603;28;20191;-69
2021/08/19 00:44:25;;;;;;;16.13;9.90;;;;;;;;;;5003707;28;20193;-70
2021/08/19 00:46:50;;;;;;;16.27;9.77;;;;;;;;;;4997917;28;20237;-70
2021/08/19 00:49:16;;;;;;;14.65;9.85;;;;;;;;;;5001368;28;20194;-69
2021/08/19 00:51:43;;;;;;;15.30;9.60;;;;;;;;;;4996168;28;20190;-70
2021/08/19 00:54:15;;;;;;;15.73;9.60;;;;;;;;;;5001362;28;20641;-70
2021/08/19 00:56:41;;;;;;;16.33;10.23;;;;;;;;;;4997225;28;20210;-70
2021/08/19 00:59:15;;;;;;;17.38;11.65;;;;;;;;;;5002218;28;20551;-70
2021/08/19 01:01:40;;;;;;;14.88;9.73;;;;;;;;;;4997774;28;20254;-70
2021/08/19 01:04:07;;;;;;;14.77;9.82;;;;;;;;;;5001731;28;20194;-70
2021/08/19 01:06:36;;;;;;;17.88;11.07;;;;;;;;;;4993344;28;20198;-70
2021/08/19 01:09:04;;;;;;;18.88;12.15;;;;;;;;;;5002373;28;20186;-70
2021/08/19 01:11:33;;;;;;;17.52;10.90;;;;;;;;;;4996860;28;20197;-69
2021/08/19 01:13:58;;;;;;;13.20;11.13;;;;;;;;;;5004080;28;20690;-69
2021/08/19 01:16:24;;;;;;;14.57;10.50;;;;;;;;;;5000525;28;20309;-69
2021/08/19 01:18:49;;;;;;;17.92;11.38;;;;;;;;;;5002482;28;20642;-69
2021/08/19 01:21:16;;;;;;;15.52;10.55;;;;;;;;;;5001841;28;20244;-69
2021/08/19 01:23:42;;;;;;;17.67;11.60;;;;;;;;;;4995466;28;20186;-69
2021/08/19 01:26:18;;;;;;;16.02;11.52;;;;;;;;;;5002644;28;20179;-69
2021/08/19 01:28:44;;;;;;;17.90;11.57;;;;;;;;;;4993865;28;20225;-69
2021/08/19 01:31:14;;;;;;;16.13;11.95;;;;;;;;;;5004438;28;20181;-69
2021/08/19 01:33:44;;;;;;;19.50;12.18;;;;;;;;;;4994356;28;20194;-69
2021/08/19 01:36:11;;;;;;;20.83;12.25;;;;;;;;;;5005670;28;20330;-70
2021/08/19 01:38:37;;;;;;;16.60;11.35;;;;;;;;;;4994354;28;20254;-70
2021/08/19 01:41:03;;;;;;;17.60;11.65;;;;;;;;;;5005193;28;20658;-70
2021/08/19 01:43:29;;;;;;;17.73;12.32;;;;;;;;;;4995003;28;20191;-70
2021/08/19 01:45:59;;;;;;;16.33;12.13;;;;;;;;;;5006262;28;20190;-70
2021/08/19 01:48:25;;;;;;;16.08;10.75;;;;;;;;;;4995159;28;20195;-70
2021/08/19 01:50:51;;;;;;;21.35;12.40;;;;;;;;;;5005835;28;20537;-70
2021/08/19 01:53:17;;;;;;;15.80;11.82;;;;;;;;;;4994052;28;20194;-70
2021/08/19 01:55:42;;;;;;;17.65;12.10;;;;;;;;;;5004831;28;20258;-70
2021/08/19 01:58:09;;;;;;;18.08;12.30;;;;;;;;;;5002011;28;20222;-70
2021/08/19 02:00:34;;;;;;;17.23;12.02;;;;;;;;;;4997260;28;20186;-69
2021/08/19 02:03:01;;;;;;;17.85;11.25;;;;;;;;;;4999679;28;20236;-69
2021/08/19 02:05:26;;;;;;;18.02;10.77;;;;;;;;;;4996244;28;20179;-70
2021/08/19 02:07:52;;;;;;;15.68;11.85;;;;;;;;;;5003172;28;20241;-70
2021/08/19 02:10:17;;;;;;;18.05;11.65;;;;;;;;;;4996650;28;20202;-70
2021/08/19 02:12:42;;;;;;;14.80;10.50;;;;;;;;;;5002085;28;20227;-70
2021/08/19 02:15:08;;;;;;;17.55;12.05;;;;;;;;;;4996830;28;20183;-70
2021/08/19 02:17:34;;;;;;;12.95;10.07;;;;;;;;;;5000779;28;20191;-70
2021/08/19 02:19:59;;;;;;;15.25;10.75;;;;;;;;;;4996448;28;20191;-70
2021/08/19 02:22:24;;;;;;;16.77;11.60;;;;;;;;;;5006890;28;20236;-70
2021/08/19 02:24:51;;;;;;;13.43;10.55;;;;;;;;;;5001999;28;20179;-74
2021/08/19 02:27:16;;;;;;;16.70;10.13;;;;;;;;;;5001740;28;20187;-70
2021/08/19 02:29:42;;;;;;;13.88;10.48;;;;;;;;;;5009695;28;20174;-70
2021/08/19 02:32:07;;;;;;;12.73;10.48;;;;;;;;;;4995423;28;20219;-70
2021/08/19 02:34:32;;;;;;;12.30;10.13;;;;;;;;;;5010491;28;20198;-70
2021/08/19 02:36:58;;;;;;;15.63;10.57;;;;;;;;;;4993767;28;20293;-70
2021/08/19 02:39:23;;;;;;;13.02;10.57;;;;;;;;;;5007759;28;20183;-70
2021/08/19 02:41:48;;;;;;;14.73;10.45;;;;;;;;;;4998130;28;20187;-70
2021/08/19 02:44:14;;;;;;;19.05;11.07;;;;;;;;;;5008608;28;20191;-70
2021/08/19 02:46:39;;;;;;;15.45;10.82;;;;;;;;;;4995261;28;20171;-70
2021/08/19 02:49:04;;;;;;;18.42;11.45;;;;;;;;;;5009146;28;20714;-70
2021/08/19 02:51:30;;;;;;;17.40;11.77;;;;;;;;;;4995342;28;20876;-70
2021/08/19 02:53:55;;;;;;;16.42;12.13;;;;;;;;;;5009468;28;20206;-70
2021/08/19 02:56:20;;;;;;;16.80;12.02;;;;;;;;;;4997637;28;20234;-70
2021/08/19 02:58:46;;;;;;;18.00;11.80;;;;;;;;;;5005008;28;20290;-70
2021/08/19 03:01:11;;;;;;;19.42;12.10;;;;;;;;;;5003353;28;20235;-70
2021/08/19 03:03:36;;;;;;;17.65;11.55;;;;;;;;;;4999461;28;20179;-70
2021/08/19 03:06:02;;;;;;;16.20;12.55;;;;;;;;;;5003052;28;20211;-70
2021/08/19 03:08:27;;;;;;;18.48;12.27;;;;;;;;;;5000430;28;20199;-70
2021/08/19 03:10:52;;;;;;;16.30;11.85;;;;;;;;;;5002256;28;20257;-70
2021/08/19 03:13:18;;;;;;;15.18;12.60;;;;;;;;;;4996970;28;20207;-70
2021/08/19 03:15:43;;;;;;;16.88;12.23;;;;;;;;;;5002747;28;20210;-70
2021/08/19 03:18:09;;;;;;;17.25;12.73;;;;;;;;;;5000351;28;20229;-70
2021/08/19 03:20:34;;;;;;;17.35;12.07;;;;;;;;;;5001102;28;20237;-70
2021/08/19 03:23:01;;;;;;;17.48;11.75;;;;;;;;;;4998608;28;20216;-71
2021/08/19 03:25:26;;;;;;;15.73;11.23;;;;;;;;;;5001173;28;20242;-69
2021/08/19 03:27:57;;;;;;;16.65;12.55;;;;;;;;;;5003699;28;20639;-70
2021/08/19 03:30:22;;;;;;;20.60;12.77;;;;;;;;;;5003985;28;20197;-69
2021/08/19 03:32:47;;;;;;;17.73;12.40;;;;;;;;;;5007979;28;20542;-69
2021/08/19 03:35:13;;;;;;;15.48;12.57;;;;;;;;;;4996055;28;20190;-69
2021/08/19 03:37:40;;;;;;;18.30;12.63;;;;;;;;;;5005282;28;20665;-69
2021/08/19 03:40:06;;;;;;;18.65;12.95;;;;;;;;;;4989990;28;20191;-70
2021/08/19 03:42:32;;;;;;;17.75;11.90;;;;;;;;;;5004114;28;20195;-69
2021/08/19 03:44:57;;;;;;;18.88;12.18;;;;;;;;;;4996776;28;20240;-69
2021/08/19 03:47:22;;;;;;;16.65;11.68;;;;;;;;;;5008464;28;20334;-70
2021/08/19 03:49:48;;;;;;;19.63;12.85;;;;;;;;;;4995661;28;20214;-69
2021/08/19 03:52:13;;;;;;;15.57;11.48;;;;;;;;;;5001785;28;20309;-69
2021/08/19 03:54:38;;;;;;;17.05;12.63;;;;;;;;;;4996960;28;20230;-70
2021/08/19 03:57:04;;;;;;;17.10;11.65;;;;;;;;;;5008088;28;20217;-69
2021/08/19 03:59:29;;;;;;;18.40;11.95;;;;;;;;;;4998971;28;20653;-70
2021/08/19 04:01:54;;;;;;;16.60;11.25;;;;;;;;;;5003581;28;20198;-69
2021/08/19 04:04:19;;;;;;;17.33;12.65;;;;;;;;;;4999399;28;20231;-70
2021/08/19 04:06:45;;;;;;;16.05;12.35;;;;;;;;;;5001002;28;20549;-69
2021/08/19 04:09:10;;;;;;;17.98;11.95;;;;;;;;;;5002249;28;20233;-69
2021/08/19 04:11:35;;;;;;;17.48;11.95;;;;;;;;;;4997321;28;20913;-69
2021/08/19 04:14:01;;;;;;;15.93;12.10;;;;;;;;;;5005850;28;20187;-70
2021/08/19 04:16:26;;;;;;;19.05;12.80;;;;;;;;;;4999182;28;21262;-69
2021/08/19 04:18:51;;;;;;;18.92;12.05;;;;;;;;;;5004185;28;20182;-70
2021/08/19 04:21:17;;;;;;;17.92;11.90;;;;;;;;;;4998905;28;20190;-70
2021/08/19 04:23:44;;;;;;;15.65;12.15;;;;;;;;;;4999524;28;20190;-70
2021/08/19 04:26:11;;;;;;;19.45;12.77;;;;;;;;;;4991173;28;20199;-70
2021/08/19 04:28:36;;;;;;;16.70;12.23;;;;;;;;;;5005377;28;20195;-70
2021/08/19 04:31:01;;;;;;;21.77;13.65;;;;;;;;;;4999754;28;20187;-69
2021/08/19 04:33:28;;;;;;;18.60;13.65;;;;;;;;;;4991536;28;20186;-70
2021/08/19 04:35:54;;;;;;;18.63;13.82;;;;;;;;;;4999382;28;20601;-69
2021/08/19 04:38:20;;;;;;;20.10;13.45;;;;;;;;;;4992946;28;20187;-70
2021/08/19 04:40:46;;;;;;;19.67;14.38;;;;;;;;;;4993567;28;20673;-70
2021/08/19 04:43:11;;;;;;;17.10;13.48;;;;;;;;;;4989332;28;20642;-70
2021/08/19 04:45:36;;;;;;;19.83;14.43;;;;;;;;;;4997278;28;20386;-70
2021/08/19 04:48:02;;;;;;;24.27;14.65;;;;;;;;;;4991325;28;20217;-70
2021/08/19 04:50:27;;;;;;;22.45;14.23;;;;;;;;;;4999384;28;20202;-70
2021/08/19 04:52:53;;;;;;;23.55;14.82;;;;;;;;;;4989409;28;20192;-70
2021/08/19 04:55:18;;;;;;;21.65;15.70;;;;;;;;;;4995427;28;20580;-70
2021/08/19 04:57:44;;;;;;;23.33;15.63;;;;;;;;;;4993927;28;20289;-70
2021/08/19 05:00:10;;;;;;;25.23;16.23;;;;;;;;;;4996385;28;20214;-70
2021/08/19 05:02:36;;;;;;;22.30;15.93;;;;;;;;;;4999508;28;20210;-70
2021/08/19 05:05:01;;;;;;;25.20;17.45;;;;;;;;;;4991580;28;20842;-70
2021/08/19 05:07:26;;;;;;;22.83;15.40;;;;;;;;;;4998457;28;20183;-70
2021/08/19 05:09:52;;;;;;;29.13;17.90;;;;;;;;;;4989558;28;20201;-70
2021/08/19 05:12:17;;;;;;;29.73;18.15;;;;;;;;;;4999133;28;20579;-70
2021/08/19 05:14:43;;;;;;;26.10;16.20;;;;;;;;;;4991535;28;20191;-70
2021/08/19 05:17:08;;;;;;;26.83;18.02;;;;;;;;;;4997694;28;20655;-70
2021/08/19 05:19:33;;;;;;;28.58;17.85;;;;;;;;;;4991466;28;20696;-70
2021/08/19 05:21:59;;;;;;;28.73;18.00;;;;;;;;;;5003048;28;20182;-70
2021/08/19 05:24:24;;;;;;;34.63;19.85;;;;;;;;;;4986313;28;20182;-70
2021/08/19 05:26:49;;;;;;;30.00;18.77;;;;;;;;;;4997943;28;20183;-70
2021/08/19 05:29:15;;;;;;;30.50;19.95;;;;;;;;;;4987863;28;20233;-70
2021/08/19 05:31:40;;;;;;;29.95;18.85;;;;;;;;;;4997991;28;20214;-70
2021/08/19 05:34:08;;;;;;;32.38;20.15;;;;;;;;;;4997060;28;20286;-71
2021/08/19 05:36:34;;;;;;;36.10;20.67;;;;;;;;;;4991716;28;20206;-71
2021/08/19 05:38:59;;;;;;;31.58;21.73;;;;;;;;;;4996509;28;20210;-70
2021/08/19 05:41:25;;;;;;;34.22;21.10;;;;;;;;;;4989909;28;20191;-70
2021/08/19 05:43:50;;;;;;;34.60;20.42;;;;;;;;;;5000963;28;20602;-70
2021/08/19 05:46:15;;;;;;;36.92;21.45;;;;;;;;;;4994127;28;20191;-70
2021/08/19 05:48:41;;;;;;;37.58;21.02;;;;;;;;;;5003904;28;20197;-70
2021/08/19 05:51:06;;;;;;;34.28;20.83;;;;;;;;;;4992846;28;20191;-70
2021/08/19 05:53:31;;;;;;;32.30;20.75;;;;;;;;;;4998188;28;20516;-70
2021/08/19 05:55:57;;;;;;;36.22;22.08;;;;;;;;;;4994537;28;20280;-72
2021/08/19 05:58:22;;;;;;;36.25;21.73;;;;;;;;;;5004894;28;20765;-70
2021/08/19 06:00:48;;;;;;;33.45;21.77;;;;;;;;;;4998028;28;20270;-70
2021/08/19 06:03:19;;;;;;;33.33;20.50;;;;;;;;;;5006800;28;20654;-70
2021/08/19 06:05:45;;;;;;;36.17;21.13;;;;;;;;;;5009130;28;20670;-71
2021/08/19 06:08:10;;;;;;;30.45;20.88;;;;;;;;;;4998144;28;20187;-71
2021/08/19 06:10:36;;;;;;;33.10;21.55;;;;;;;;;;5006409;28;20732;-71
2021/08/19 06:13:01;;;;;;;30.77;20.25;;;;;;;;;;4997802;28;20191;-69
2021/08/19 06:15:26;;;;;;;34.85;21.38;;;;;;;;;;5004587;28;20187;-70
2021/08/19 06:17:52;;;;;;;31.33;20.40;;;;;;;;;;4998533;28;20308;-70
2021/08/19 06:20:17;;;;;;;32.67;20.73;;;;;;;;;;5006773;28;20179;-70
2021/08/19 06:22:42;;;;;;;38.00;21.15;;;;;;;;;;4999527;28;20647;-70
2021/08/19 06:25:09;;;;;;;32.88;21.80;;;;;;;;;;5004981;28;20190;-71
2021/08/19 06:27:34;;;;;;;30.27;20.23;;;;;;;;;;4998278;28;20237;-71
2021/08/19 06:29:59;;;;;;;40.13;21.38;;;;;;;;;;5006904;28;20202;-70
2021/08/19 06:32:25;;;;;;;29.98;20.75;;;;;;;;;;5001158;28;20202;-70
2021/08/19 06:34:50;;;;;;;32.88;20.45;;;;;;;;;;5006220;28;20534;-70
2021/08/19 06:37:15;;;;;;;29.73;19.77;;;;;;;;;;5008751;28;20205;-70
2021/08/19 06:39:41;;;;;;;30.67;18.60;;;;;;;;;;4998868;28;20220;-70
2021/08/19 06:42:06;;;;;;;29.83;19.65;;;;;;;;;;5003830;28;20241;-70
2021/08/19 06:44:31;;;;;;;32.95;19.83;;;;;;;;;;4997185;28;20626;-70
2021/08/19 06:46:57;;;;;;;31.70;20.52;;;;;;;;;;5006045;28;20182;-70
2021/08/19 06:49:22;;;;;;;28.67;20.75;;;;;;;;;;4991588;28;20248;-70
2021/08/19 06:51:47;;;;;;;32.33;20.08;;;;;;;;;;4997141;28;20533;-70
2021/08/19 06:54:13;;;;;;;27.67;19.38;;;;;;;;;;4990287;28;20188;-70
2021/08/19 06:56:38;;;;;;;29.08;19.50;;;;;;;;;;5002135;28;20238;-70
2021/08/19 06:59:03;;;;;;;28.23;19.65;;;;;;;;;;4991183;28;21093;-70
2021/08/19 07:01:29;;;;;;;29.35;19.73;;;;;;;;;;4995599;28;20191;-70
2021/08/19 07:03:54;;;;;;;27.73;19.40;;;;;;;;;;5003367;28;20190;-70
2021/08/19 07:06:19;;;;;;;27.75;19.38;;;;;;;;;;4998658;28;20179;-70
2021/08/19 07:08:45;;;;;;;27.50;18.70;;;;;;;;;;5004999;28;20250;-73
2021/08/19 07:11:11;;;;;;;31.05;19.73;;;;;;;;;;4996608;28;20642;-70
2021/08/19 07:13:37;;;;;;;29.52;20.42;;;;;;;;;;4999968;28;20190;-70
2021/08/19 07:16:03;;;;;;;29.65;18.92;;;;;;;;;;4994825;28;20207;-70
2021/08/19 07:18:28;;;;;;;28.83;19.65;;;;;;;;;;5005769;28;20265;-71
2021/08/19 07:20:54;;;;;;;32.55;21.02;;;;;;;;;;4997158;28;20290;-70
2021/08/19 07:23:19;;;;;;;34.08;21.15;;;;;;;;;;5005156;28;20245;-71
2021/08/19 07:25:45;;;;;;;31.65;21.33;;;;;;;;;;4990642;28;20625;-70
2021/08/19 07:28:11;;;;;;;33.33;20.48;;;;;;;;;;5005275;28;20183;-70
2021/08/19 07:30:36;;;;;;;34.47;21.13;;;;;;;;;;4997542;28;20653;-70
2021/08/19 07:33:01;;;;;;;31.15;21.20;;;;;;;;;;4999141;28;20681;-70
2021/08/19 07:35:28;;;;;;;27.77;19.60;;;;;;;;;;5001878;28;20263;-70
2021/08/19 07:37:55;;;;;;;29.02;19.90;;;;;;;;;;4997369;28;20237;-70
2021/08/19 07:40:23;;;;;;;36.58;20.85;;;;;;;;;;5001584;28;20214;-71
2021/08/19 07:42:50;;;;;;;26.20;19.08;;;;;;;;;;4995515;28;20190;-70
2021/08/19 07:45:18;;;;;;;28.65;19.83;;;;;;;;;;5004027;28;20326;-70
2021/08/19 07:47:44;;;;;;;25.48;18.77;;;;;;;;;;4994787;28;20649;-70
2021/08/19 07:50:11;;;;;;;25.08;17.70;;;;;;;;;;5004189;28;20277;-70
2021/08/19 07:52:38;;;;;;;26.48;18.05;;;;;;;;;;4996788;28;20206;-70
2021/08/19 07:55:05;;;;;;;26.65;17.95;;;;;;;;;;5000929;28;20339;-70
2021/08/19 07:57:45;;;;;;;27.83;18.77;;;;;;;;;;4993905;28;20222;-70
2021/08/19 08:00:11;;;;;;;28.02;17.92;;;;;;;;;;5005360;28;20580;-70
2021/08/19 08:02:36;;;;;;;26.88;17.65;;;;;;;;;;4996850;28;21698;-70
2021/08/19 08:05:02;;;;;;;24.40;17.25;;;;;;;;;;5004722;28;20202;-70
2021/08/19 08:07:29;;;;;;;25.52;17.85;;;;;;;;;;4997118;28;20214;-71
2021/08/19 08:09:54;;;;;;;26.90;17.77;;;;;;;;;;5002926;28;20595;-70
2021/08/19 08:12:20;;;;;;;28.60;17.15;;;;;;;;;;5002435;28;20225;-70
2021/08/19 08:14:45;;;;;;;25.58;16.48;;;;;;;;;;4994386;28;20206;-70
2021/08/19 08:17:10;;;;;;;26.75;16.52;;;;;;;;;;5004526;28;20242;-70
2021/08/19 08:19:37;;;;;;;25.02;16.85;;;;;;;;;;4993418;28;20301;-73
2021/08/19 08:22:03;;;;;;;24.40;16.75;;;;;;;;;;5005923;28;20229;-74
2021/08/19 08:24:28;;;;;;;30.17;17.33;;;;;;;;;;4995403;28;20564;-70
2021/08/19 08:26:53;;;;;;;23.25;16.27;;;;;;;;;;5001123;28;20533;-71
2021/08/19 08:29:19;;;;;;;20.88;16.70;;;;;;;;;;4991723;28;20282;-70
2021/08/19 08:31:45;;;;;;;24.02;15.93;;;;;;;;;;5002634;28;20229;-70
2021/08/19 08:34:11;;;;;;;22.65;16.10;;;;;;;;;;4992676;28;20221;-70
2021/08/19 08:36:36;;;;;;;25.73;16.83;;;;;;;;;;5003965;28;20210;-70
2021/08/19 08:39:04;;;;;;;18.85;15.13;;;;;;;;;;4996659;28;20645;-70
2021/08/19 08:41:32;;;;;;;22.70;15.40;;;;;;;;;;5005469;28;20179;-71
2021/08/19 08:43:57;;;;;;;22.30;15.40;;;;;;;;;;5004340;28;20194;-70
2021/08/19 08:46:24;;;;;;;22.50;15.40;;;;;;;;;;4994049;28;20326;-72
2021/08/19 08:48:55;;;;;;;18.70;13.23;;;;;;;;;;5000998;28;20198;-70
2021/08/19 08:51:20;;;;;;;21.40;14.68;;;;;;;;;;4996740;28;20190;-70
2021/08/19 08:53:46;;;;;;;25.30;13.77;;;;;;;;;;4997946;28;20399;-70
2021/08/19 08:56:11;;;;;;;23.33;14.82;;;;;;;;;;4995627;28;20270;-70
2021/08/19 08:58:36;;;;;;;20.15;15.20;;;;;;;;;;4999264;28;20573;-71
2021/08/19 09:01:03;;;;;;;23.92;15.13;;;;;;;;;;4992912;28;20190;-70
2021/08/19 09:03:29;;;;;;;20.75;14.32;;;;;;;;;;5000722;28;20186;-70
2021/08/19 09:05:54;;;;;;;22.15;14.10;;;;;;;;;;4994118;28;20596;-70
2021/08/19 09:08:22;;;;;;;21.38;14.82;;;;;;;;;;5000492;28;20728;-71
2021/08/19 09:10:50;;;;;;;19.20;13.88;;;;;;;;;;4992772;28;20206;-70
2021/08/19 09:13:18;;;;;;;21.27;14.57;;;;;;;;;;4999117;28;20210;-72
2021/08/19 09:15:45;;;;;;;21.85;14.38;;;;;;;;;;4999830;28;20299;-70
2021/08/19 09:18:12;;;;;;;21.30;14.45;;;;;;;;;;4998890;28;20202;-69
2021/08/19 09:20:40;;;;;;;21.98;14.68;;;;;;;;;;5008211;28;20657;-71
2021/08/19 09:23:09;;;;;;;22.55;13.98;;;;;;;;;;4993172;28;20194;-71
2021/08/19 09:25:38;;;;;;;24.63;15.07;;;;;;;;;;5004352;28;20233;-71
2021/08/19 09:28:15;;;;;;;20.40;14.43;;;;;;;;;;4994075;28;20182;-71
2021/08/19 09:30:53;;;;;;;20.45;15.15;;;;;;;;;;5009732;28;20213;-71
2021/08/19 09:33:24;;;;;;;23.50;14.85;;;;;;;;;;4996401;28;20309;-71
2021/08/19 09:35:51;;;;;;;27.52;15.43;;;;;;;;;;5009249;28;20218;-71
2021/08/19 09:38:19;;;;;;;21.40;14.75;;;;;;;;;;4997916;28;20471;-71
2021/08/19 09:41:06;;;;;;;18.73;14.38;;;;;;;;;;5006008;28;20189;-72
2021/08/19 09:43:42;;;;;;;24.92;14.85;;;;;;;;;;5000625;28;20638;-71
2021/08/19 09:46:10;;;;;;;20.73;14.98;;;;;;;;;;5004677;28;20666;-74
2021/08/19 09:48:35;;;;;;;26.30;15.48;;;;;;;;;;5000417;28;20270;-71
2021/08/19 09:51:22;;;;;;;20.27;14.85;;;;;;;;;;5005950;28;20230;-71
2021/08/19 09:53:50;;;;;;;19.30;15.65;;;;;;;;;;4998027;28;20178;-71
2021/08/19 09:56:37;;;;;;;22.40;16.08;;;;;;;;;;5007413;28;20296;-71
2021/08/19 09:59:18;;;;;;;26.02;16.45;;;;;;;;;;4996043;28;20249;-71
2021/08/19 10:01:45;;;;;;;26.45;16.52;;;;;;;;;;5007805;28;20344;-71
2021/08/19 10:04:11;;;;;;;25.27;16.63;;;;;;;;;;4999644;28;20198;-71
2021/08/19 10:06:37;;;;;;;23.02;15.60;;;;;;;;;;5005693;28;20183;-71
2021/08/19 10:09:02;;;;;;;25.38;16.20;;;;;;;;;;4999404;28;20202;-71
2021/08/19 10:11:28;;;;;;;22.23;15.20;;;;;;;;;;5007879;28;20514;-71
2021/08/19 10:13:54;;;;;;;23.70;16.33;;;;;;;;;;4994879;28;26205;-73
2021/08/19 10:16:19;;;;;;;23.60;16.17;;;;;;;;;;5004206;28;20610;-71
2021/08/19 10:18:48;;;;;;;20.45;15.55;;;;;;;;;;5005638;28;20194;-70
2021/08/19 10:21:16;;;;;;;24.92;16.77;;;;;;;;;;4992756;28;20329;-71
2021/08/19 10:23:43;;;;;;;20.25;14.88;;;;;;;;;;5007180;28;20194;-71
2021/08/19 10:26:11;;;;;;;21.77;15.20;;;;;;;;;;4999141;28;20194;-71
2021/08/19 10:28:51;;;;;;;24.08;15.85;;;;;;;;;;5010337;28;20193;-70
2021/08/19 10:31:35;;;;;;;24.30;14.63;;;;;;;;;;4999460;28;20201;-71
2021/08/19 10:34:00;;;;;;;24.10;15.30;;;;;;;;;;5008307;28;20202;-71
2021/08/19 10:36:45;;;;;;;21.38;15.77;;;;;;;;;;4993446;28;20206;-71
2021/08/19 10:39:20;;;;;;;23.48;15.82;;;;;;;;;;5004520;28;20606;-71
2021/08/19 10:41:52;;;;;;;22.08;15.10;;;;;;;;;;5012502;28;20190;-71
2021/08/19 10:44:18;;;;;;;24.80;15.20;;;;;;;;;;5004917;28;20233;-71
2021/08/19 10:46:46;;;;;;;21.75;14.30;;;;;;;;;;4996843;28;20846;-72
2021/08/19 10:49:39;;;;;;;21.60;14.45;;;;;;;;;;5003770;28;20689;-72
2021/08/19 10:52:07;;;;;;;23.17;14.20;;;;;;;;;;4998424;28;20249;-71
2021/08/19 10:54:40;;;;;;;20.83;15.52;;;;;;;;;;5006622;28;20211;-71
2021/08/19 10:57:21;;;;;;;23.92;15.63;;;;;;;;;;5006154;28;20201;-71
2021/08/19 10:59:57;;;;;;;27.88;16.67;;;;;;;;;;5007105;28;20756;-71
2021/08/19 11:02:48;;;;;;;23.08;16.27;;;;;;;;;;5002947;28;20181;-71
2021/08/19 11:05:36;;;;;;;27.15;17.35;;;;;;;;;;5003007;28;20213;-72
2021/08/19 11:08:04;;;;;;;28.40;17.30;;;;;;;;;;4997627;28;20210;-70
2021/08/19 11:10:36;;;;;;;27.30;17.35;;;;;;;;;;5007444;28;20180;-69
2021/08/19 11:13:02;;;;;;;22.73;16.08;;;;;;;;;;4996656;28;20194;-69
2021/08/19 11:15:28;;;;;;;27.80;17.30;;;;;;;;;;5006564;28;20647;-69
2021/08/19 11:17:55;;;;;;;25.27;16.80;;;;;;;;;;5000360;28;20570;-69
2021/08/19 11:20:33;;;;;;;22.63;15.60;;;;;;;;;;5003622;28;20182;-69
2021/08/19 11:23:11;;;;;;;21.17;15.80;;;;;;;;;;4999127;28;20611;-70
2021/08/19 11:25:41;;;;;;;28.63;15.73;;;;;;;;;;5008153;28;20236;-69
2021/08/19 11:28:14;;;;;;;26.42;14.95;;;;;;;;;;4999826;28;20310;-69
2021/08/19 11:30:44;;;;;;;24.60;15.43;;;;;;;;;;5008064;28;20412;-70
2021/08/19 11:33:16;;;;;;;28.00;14.73;;;;;;;;;;4997483;28;20179;-69
2021/08/19 11:35:43;;;;;;;20.13;13.48;;;;;;;;;;5006916;28;20224;-70
2021/08/19 11:38:20;;;;;;;22.35;13.52;;;;;;;;;;4997681;28;20182;-71
2021/08/19 11:40:49;;;;;;;22.90;13.20;;;;;;;;;;5008092;28;20269;-72
2021/08/19 11:43:18;;;;;;;18.85;12.82;;;;;;;;;;4997082;28;20210;-72
2021/08/19 11:45:43;;;;;;;16.58;11.43;;;;;;;;;;5005504;28;20225;-72
2021/08/19 11:48:12;;;;;;;16.55;12.35;;;;;;;;;;5005723;28;20207;-72
2021/08/19 11:50:38;;;;;;;19.98;11.65;;;;;;;;;;4998783;28;20201;-72
2021/08/19 11:53:03;;;;;;;21.15;12.30;;;;;;;;;;5005889;28;20252;-72
2021/08/19 11:55:30;;;;;;;20.13;12.53;;;;;;;;;;4999747;28;20234;-72
2021/08/19 11:58:14;;;;;;;19.23;12.98;;;;;;;;;;5008664;28;20701;-76
2021/08/19 12:00:58;;;;;;;19.10;13.20;;;;;;;;;;5000876;28;20202;-69
2021/08/19 12:03:24;;;;;;;19.48;11.98;;;;;;;;;;5006098;28;21850;-70
2021/08/19 12:05:59;;;;;;;20.73;13.05;;;;;;;;;;4996823;28;20661;-70
2021/08/19 12:08:28;;;;;;;19.95;12.77;;;;;;;;;;5002734;28;20190;-70
2021/08/19 12:10:56;;;;;;;22.63;13.52;;;;;;;;;;4995713;28;20684;-71
2021/08/19 12:13:21;;;;;;;20.23;13.52;;;;;;;;;;5005567;28;20174;-70
2021/08/19 12:15:47;;;;;;;21.08;13.82;;;;;;;;;;4998619;28;20192;-70
2021/08/19 12:18:13;;;;;;;20.17;14.10;;;;;;;;;;5004670;28;20197;-71
2021/08/19 12:20:38;;;;;;;20.50;14.05;;;;;;;;;;4999453;28;20190;-70
2021/08/19 12:23:22;;;;;;;17.77;12.73;;;;;;;;;;5012377;28;20213;-70
2021/08/19 12:25:48;;;;;;;20.92;12.98;;;;;;;;;;4995497;28;20205;-70
2021/08/19 12:28:16;;;;;;;17.77;13.35;;;;;;;;;;5006730;28;20183;-70
2021/08/19 12:31:03;;;;;;;18.27;12.75;;;;;;;;;;4994423;28;20198;-70
2021/08/19 12:33:35;;;;;;;20.30;14.10;;;;;;;;;;5009232;28;20198;-71
2021/08/19 12:36:18;;;;;;;26.10;15.82;;;;;;;;;;4998658;28;20535;-70
2021/08/19 12:38:46;;;;;;;20.35;14.70;;;;;;;;;;5006515;28;20630;-70
2021/08/19 12:41:20;;;;;;;25.48;15.52;;;;;;;;;;4997144;28;20182;-70
2021/08/19 12:43:47;;;;;;;27.95;15.82;;;;;;;;;;5008308;28;20194;-70
2021/08/19 12:46:14;;;;;;;29.05;17.23;;;;;;;;;;5007474;28;20197;-70
2021/08/19 12:48:41;;;;;;;25.08;16.63;;;;;;;;;;5000682;28;20517;-70
2021/08/19 12:51:18;;;;;;;24.85;17.20;;;;;;;;;;5002781;28;20317;-70
2021/08/19 12:54:03;;;;;;;24.92;16.15;;;;;;;;;;5000109;28;20182;-70
2021/08/19 12:56:29;;;;;;;26.40;16.13;;;;;;;;;;5006239;28;20222;-70
2021/08/19 12:58:55;;;;;;;22.95;15.57;;;;;;;;;;4994769;28;20210;-70
2021/08/19 13:01:20;;;;;;;20.02;15.35;;;;;;;;;;5004338;28;20547;-70
2021/08/19 13:03:45;;;;;;;19.80;14.32;;;;;;;;;;4996280;28;20560;-73
2021/08/19 13:06:11;;;;;;;22.10;14.98;;;;;;;;;;5002433;28;20285;-73
2021/08/19 13:08:36;;;;;;;24.02;14.30;;;;;;;;;;4997480;28;20197;-70
2021/08/19 13:11:01;;;;;;;18.17;12.55;;;;;;;;;;5009175;28;20198;-71
2021/08/19 13:13:27;;;;;;;18.60;11.82;;;;;;;;;;4990623;28;20198;-70
2021/08/19 13:15:52;;;;;;;19.30;12.48;;;;;;;;;;4987166;28;20221;-70
2021/08/19 13:18:18;;;;;;;18.13;12.15;;;;;;;;;;4992543;28;20277;-70
2021/08/19 13:20:43;;;;;;;17.50;11.57;;;;;;;;;;5002745;28;20179;-70
2021/08/19 13:23:08;;;;;;;14.48;10.02;;;;;;;;;;4996374;28;20186;-71
2021/08/19 13:25:34;;;;;;;18.27;10.85;;;;;;;;;;4997067;28;20547;-72
2021/08/19 13:27:59;;;;;;;16.70;10.27;;;;;;;;;;4999407;28;20187;-71
2021/08/19 13:30:25;;;;;;;17.88;10.65;;;;;;;;;;4990337;28;20789;-70
2021/08/19 13:32:51;;;;;;;15.30;11.35;;;;;;;;;;4998401;28;20190;-71
2021/08/19 13:35:16;;;;;;;16.67;11.65;;;;;;;;;;4992024;28;20262;-69
2021/08/19 13:37:43;;;;;;;19.00;13.10;;;;;;;;;;4999762;28;20217;-70
2021/08/19 13:40:08;;;;;;;18.63;13.70;;;;;;;;;;4990485;28;20214;-70
2021/08/19 13:42:34;;;;;;;22.88;14.68;;;;;;;;;;5005577;28;20187;-73
2021/08/19 13:44:59;;;;;;;18.48;13.77;;;;;;;;;;4995490;28;20650;-70
2021/08/19 13:47:25;;;;;;;19.55;13.00;;;;;;;;;;5002250;28;20677;-72
2021/08/19 13:49:50;;;;;;;18.73;13.23;;;;;;;;;;4997487;28;20195;-71
2021/08/19 13:52:15;;;;;;;20.63;13.57;;;;;;;;;;4997289;28;20197;-71
2021/08/19 13:54:41;;;;;;;21.38;13.40;;;;;;;;;;5000916;28;20560;-71
2021/08/19 13:57:06;;;;;;;19.60;13.60;;;;;;;;;;4999165;28;20234;-74
2021/08/19 13:59:38;;;;;;;20.75;14.02;;;;;;;;;;5003699;28;20203;-71
2021/08/19 14:02:04;;;;;;;19.30;14.77;;;;;;;;;;4302528;28;10000845;-75
2021/08/19 14:04:30;;;;;;;21.65;13.98;;;;;;;;;;4997448;28;20630;-73
2021/08/19 14:06:56;;;;;;;20.27;14.35;;;;;;;;;;4996165;28;20194;-72
2021/08/19 14:09:21;;;;;;;18.40;13.70;;;;;;;;;;5003868;28;20194;-72
2021/08/19 14:11:46;;;;;;;20.58;14.15;;;;;;;;;;4995522;28;20189;-72
2021/08/19 14:14:12;;;;;;;22.90;14.48;;;;;;;;;;5003279;28;20179;-72
2021/08/19 14:16:37;;;;;;;23.35;15.30;;;;;;;;;;5002088;28;20206;-72
2021/08/19 14:19:03;;;;;;;19.40;13.80;;;;;;;;;;5008546;28;20229;-71